sensor_id;sensor_type;location;lat;lon;timestamp;P1;durP1;ratioP1;P2;durP2;ratioP2
80586;SDS011;69943;20.850;106.728;2023-07-16T00:01:03;27.90;;;18.30;;
80586;SDS011;69943;20.850;106.728;2023-07-16T00:03:53;25.30;;;18.20;;
80586;SDS011;69943;20.850;106.728;2023-07-16T00:06:22;23.90;;;16.50;;
80586;SDS011;69943;20.850;106.728;2023-07-16T00:08:52;24.50;;;17.50;;
80586;SDS011;69943;20.850;106.728;2023-07-16T00:13:50;26.30;;;17.30;;
80586;SDS011;69943;20.850;106.728;2023-07-16T00:16:21;27.50;;;18.10;;
80586;SDS011;69943;20.850;106.728;2023-07-16T00:18:50;23.70;;;17.00;;
80586;SDS011;69943;20.850;106.728;2023-07-16T00:21:20;25.10;;;18.00;;
80586;SDS011;69943;20.850;106.728;2023-07-16T00:26:18;34.10;;;21.20;;
80586;SDS011;69943;20.850;106.728;2023-07-16T00:28:48;24.20;;;16.70;;
80586;SDS011;69943;20.850;106.728;2023-07-16T00:31:17;26.20;;;17.90;;
80586;SDS011;69943;20.850;106.728;2023-07-16T00:33:47;31.70;;;18.80;;
80586;SDS011;69943;20.850;106.728;2023-07-16T00:36:16;25.30;;;18.00;;
80586;SDS011;69943;20.850;106.728;2023-07-16T00:38:46;27.20;;;18.30;;
80586;SDS011;69943;20.850;106.728;2023-07-16T00:41:15;23.70;;;17.60;;
80586;SDS011;69943;20.850;106.728;2023-07-16T00:43:45;20.90;;;16.40;;
80586;SDS011;69943;20.850;106.728;2023-07-16T00:46:14;27.40;;;18.10;;
80586;SDS011;69943;20.850;106.728;2023-07-16T00:48:45;31.90;;;19.70;;
80586;SDS011;69943;20.850;106.728;2023-07-16T00:51:15;27.50;;;17.80;;
80586;SDS011;69943;20.850;106.728;2023-07-16T00:53:44;23.70;;;18.00;;
80586;SDS011;69943;20.850;106.728;2023-07-16T00:56:15;25.80;;;17.00;;
80586;SDS011;69943;20.850;106.728;2023-07-16T00:58:48;26.90;;;17.70;;
80586;SDS011;69943;20.850;106.728;2023-07-16T01:01:18;26.00;;;18.60;;
80586;SDS011;69943;20.850;106.728;2023-07-16T01:08:56;25.30;;;17.10;;
80586;SDS011;69943;20.850;106.728;2023-07-16T01:11:31;28.50;;;18.60;;
80586;SDS011;69943;20.850;106.728;2023-07-16T01:14:03;31.00;;;18.20;;
80586;SDS011;69943;20.850;106.728;2023-07-16T01:16:33;24.60;;;18.40;;
80586;SDS011;69943;20.850;106.728;2023-07-16T01:19:02;25.20;;;17.60;;
80586;SDS011;69943;20.850;106.728;2023-07-16T01:21:34;24.20;;;18.30;;
80586;SDS011;69943;20.850;106.728;2023-07-16T01:30:02;26.40;;;17.40;;
80586;SDS011;69943;20.850;106.728;2023-07-16T01:32:32;29.70;;;18.40;;
80586;SDS011;69943;20.850;106.728;2023-07-16T01:35:02;24.70;;;17.40;;
80586;SDS011;69943;20.850;106.728;2023-07-16T01:37:33;24.30;;;16.40;;
80586;SDS011;69943;20.850;106.728;2023-07-16T01:40:03;26.20;;;18.00;;
80586;SDS011;69943;20.850;106.728;2023-07-16T01:42:33;31.60;;;17.30;;
80586;SDS011;69943;20.850;106.728;2023-07-16T01:45:02;27.50;;;18.90;;
80586;SDS011;69943;20.850;106.728;2023-07-16T01:47:39;23.00;;;16.90;;
80586;SDS011;69943;20.850;106.728;2023-07-16T01:50:09;25.30;;;18.00;;
80586;SDS011;69943;20.850;106.728;2023-07-16T01:52:39;22.80;;;17.50;;
80586;SDS011;69943;20.850;106.728;2023-07-16T01:57:37;26.50;;;16.90;;
80586;SDS011;69943;20.850;106.728;2023-07-16T02:00:07;27.00;;;16.50;;
80586;SDS011;69943;20.850;106.728;2023-07-16T02:02:37;23.60;;;16.40;;
80586;SDS011;69943;20.850;106.728;2023-07-16T02:05:07;27.60;;;17.60;;
80586;SDS011;69943;20.850;106.728;2023-07-16T02:07:36;27.40;;;16.50;;
80586;SDS011;69943;20.850;106.728;2023-07-16T02:10:06;26.40;;;16.80;;
80586;SDS011;69943;20.850;106.728;2023-07-16T02:12:36;26.70;;;16.90;;
80586;SDS011;69943;20.850;106.728;2023-07-16T02:17:35;24.00;;;16.20;;
80586;SDS011;69943;20.850;106.728;2023-07-16T02:20:05;22.80;;;15.50;;
80586;SDS011;69943;20.850;106.728;2023-07-16T02:22:35;23.60;;;16.50;;
80586;SDS011;69943;20.850;106.728;2023-07-16T02:25:04;23.50;;;15.60;;
80586;SDS011;69943;20.850;106.728;2023-07-16T02:27:34;24.60;;;15.90;;
80586;SDS011;69943;20.850;106.728;2023-07-16T02:30:04;26.60;;;16.50;;
80586;SDS011;69943;20.850;106.728;2023-07-16T02:32:34;22.30;;;15.10;;
80586;SDS011;69943;20.850;106.728;2023-07-16T02:35:04;22.90;;;16.00;;
80586;SDS011;69943;20.850;106.728;2023-07-16T02:37:35;22.60;;;15.10;;
80586;SDS011;69943;20.850;106.728;2023-07-16T02:40:05;21.30;;;14.70;;
80586;SDS011;69943;20.850;106.728;2023-07-16T02:42:35;22.80;;;15.30;;
80586;SDS011;69943;20.850;106.728;2023-07-16T02:45:08;21.30;;;14.60;;
80586;SDS011;69943;20.850;106.728;2023-07-16T02:47:37;22.50;;;14.50;;
80586;SDS011;69943;20.850;106.728;2023-07-16T02:50:07;24.00;;;14.40;;
80586;SDS011;69943;20.850;106.728;2023-07-16T02:52:37;22.40;;;13.10;;
80586;SDS011;69943;20.850;106.728;2023-07-16T02:55:06;25.60;;;14.40;;
80586;SDS011;69943;20.850;106.728;2023-07-16T02:57:36;18.70;;;12.80;;
80586;SDS011;69943;20.850;106.728;2023-07-16T03:00:05;18.50;;;12.10;;
80586;SDS011;69943;20.850;106.728;2023-07-16T03:02:35;20.00;;;12.60;;
80586;SDS011;69943;20.850;106.728;2023-07-16T03:05:05;21.70;;;12.70;;
80586;SDS011;69943;20.850;106.728;2023-07-16T03:07:34;23.60;;;13.30;;
80586;SDS011;69943;20.850;106.728;2023-07-16T03:10:04;16.60;;;11.80;;
80586;SDS011;69943;20.850;106.728;2023-07-16T03:12:34;14.70;;;11.30;;
80586;SDS011;69943;20.850;106.728;2023-07-16T03:15:03;23.90;;;11.80;;
80586;SDS011;69943;20.850;106.728;2023-07-16T03:17:33;17.90;;;11.90;;
80586;SDS011;69943;20.850;106.728;2023-07-16T03:20:02;19.60;;;11.50;;
80586;SDS011;69943;20.850;106.728;2023-07-16T03:22:33;18.60;;;12.20;;
80586;SDS011;69943;20.850;106.728;2023-07-16T03:25:03;18.80;;;12.20;;
80586;SDS011;69943;20.850;106.728;2023-07-16T03:27:33;19.60;;;12.00;;
80586;SDS011;69943;20.850;106.728;2023-07-16T03:32:32;18.90;;;10.70;;
80586;SDS011;69943;20.850;106.728;2023-07-16T03:35:02;19.80;;;10.90;;
80586;SDS011;69943;20.850;106.728;2023-07-16T03:37:31;24.30;;;11.00;;
80586;SDS011;69943;20.850;106.728;2023-07-16T03:40:12;13.70;;;10.30;;
80586;SDS011;69943;20.850;106.728;2023-07-16T03:42:42;19.60;;;10.80;;
80586;SDS011;69943;20.850;106.728;2023-07-16T03:45:12;17.20;;;10.70;;
80586;SDS011;69943;20.850;106.728;2023-07-16T03:47:42;15.80;;;10.20;;
80586;SDS011;69943;20.850;106.728;2023-07-16T03:50:12;16.40;;;10.00;;
80586;SDS011;69943;20.850;106.728;2023-07-16T03:52:41;16.10;;;9.60;;
80586;SDS011;69943;20.850;106.728;2023-07-16T03:55:11;12.60;;;10.30;;
80586;SDS011;69943;20.850;106.728;2023-07-16T03:57:41;13.00;;;9.20;;
80586;SDS011;69943;20.850;106.728;2023-07-16T04:00:11;15.20;;;9.30;;
80586;SDS011;69943;20.850;106.728;2023-07-16T04:02:40;19.10;;;10.90;;
80586;SDS011;69943;20.850;106.728;2023-07-16T04:05:10;16.00;;;10.80;;
80586;SDS011;69943;20.850;106.728;2023-07-16T04:07:41;12.70;;;9.00;;
80586;SDS011;69943;20.850;106.728;2023-07-16T04:12:39;16.10;;;9.40;;
80586;SDS011;69943;20.850;106.728;2023-07-16T04:15:08;15.20;;;9.10;;
80586;SDS011;69943;20.850;106.728;2023-07-16T04:17:38;15.60;;;9.20;;
80586;SDS011;69943;20.850;106.728;2023-07-16T04:20:08;14.10;;;9.30;;
80586;SDS011;69943;20.850;106.728;2023-07-16T04:22:38;14.90;;;8.60;;
80586;SDS011;69943;20.850;106.728;2023-07-16T04:25:07;13.50;;;9.10;;
80586;SDS011;69943;20.850;106.728;2023-07-16T04:27:37;16.10;;;9.60;;
80586;SDS011;69943;20.850;106.728;2023-07-16T04:30:09;16.30;;;9.10;;
80586;SDS011;69943;20.850;106.728;2023-07-16T04:32:38;14.70;;;9.40;;
80586;SDS011;69943;20.850;106.728;2023-07-16T04:35:08;14.50;;;10.00;;
80586;SDS011;69943;20.850;106.728;2023-07-16T04:37:37;12.50;;;7.80;;
80586;SDS011;69943;20.850;106.728;2023-07-16T04:40:07;12.90;;;9.00;;
80586;SDS011;69943;20.850;106.728;2023-07-16T04:42:38;11.50;;;7.80;;
80586;SDS011;69943;20.850;106.728;2023-07-16T04:45:07;12.30;;;8.30;;
80586;SDS011;69943;20.850;106.728;2023-07-16T04:47:37;12.50;;;9.30;;
80586;SDS011;69943;20.850;106.728;2023-07-16T04:50:06;14.10;;;9.10;;
80586;SDS011;69943;20.850;106.728;2023-07-16T04:52:36;11.30;;;9.00;;
80586;SDS011;69943;20.850;106.728;2023-07-16T04:55:06;12.50;;;8.40;;
80586;SDS011;69943;20.850;106.728;2023-07-16T04:57:36;12.50;;;8.80;;
80586;SDS011;69943;20.850;106.728;2023-07-16T05:00:05;9.30;;;8.10;;
80586;SDS011;69943;20.850;106.728;2023-07-16T05:02:36;12.30;;;8.40;;
80586;SDS011;69943;20.850;106.728;2023-07-16T05:05:05;16.70;;;9.10;;
80586;SDS011;69943;20.850;106.728;2023-07-16T05:07:35;12.10;;;8.70;;
80586;SDS011;69943;20.850;106.728;2023-07-16T05:10:05;16.40;;;8.80;;
80586;SDS011;69943;20.850;106.728;2023-07-16T05:12:35;9.40;;;8.00;;
80586;SDS011;69943;20.850;106.728;2023-07-16T05:15:04;8.50;;;7.50;;
80586;SDS011;69943;20.850;106.728;2023-07-16T05:17:34;13.20;;;9.00;;
80586;SDS011;69943;20.850;106.728;2023-07-16T05:20:04;13.60;;;8.60;;
80586;SDS011;69943;20.850;106.728;2023-07-16T05:22:33;12.10;;;8.60;;
80586;SDS011;69943;20.850;106.728;2023-07-16T05:25:03;14.20;;;8.50;;
80586;SDS011;69943;20.850;106.728;2023-07-16T05:27:33;12.00;;;8.40;;
80586;SDS011;69943;20.850;106.728;2023-07-16T05:30:04;15.20;;;8.70;;
80586;SDS011;69943;20.850;106.728;2023-07-16T05:32:35;10.40;;;8.80;;
80586;SDS011;69943;20.850;106.728;2023-07-16T05:35:04;13.90;;;8.50;;
80586;SDS011;69943;20.850;106.728;2023-07-16T05:37:34;11.10;;;8.20;;
80586;SDS011;69943;20.850;106.728;2023-07-16T05:40:04;13.70;;;8.50;;
80586;SDS011;69943;20.850;106.728;2023-07-16T05:42:36;15.00;;;8.70;;
80586;SDS011;69943;20.850;106.728;2023-07-16T05:45:06;18.10;;;8.10;;
80586;SDS011;69943;20.850;106.728;2023-07-16T05:47:36;14.10;;;8.90;;
80586;SDS011;69943;20.850;106.728;2023-07-16T05:50:05;9.90;;;8.10;;
80586;SDS011;69943;20.850;106.728;2023-07-16T05:52:35;14.00;;;10.30;;
80586;SDS011;69943;20.850;106.728;2023-07-16T05:55:05;14.10;;;8.70;;
80586;SDS011;69943;20.850;106.728;2023-07-16T05:57:35;11.30;;;9.00;;
80586;SDS011;69943;20.850;106.728;2023-07-16T06:00:04;11.10;;;8.70;;
80586;SDS011;69943;20.850;106.728;2023-07-16T06:02:34;11.90;;;9.50;;
80586;SDS011;69943;20.850;106.728;2023-07-16T06:05:04;10.30;;;8.90;;
80586;SDS011;69943;20.850;106.728;2023-07-16T06:07:34;11.50;;;8.40;;
80586;SDS011;69943;20.850;106.728;2023-07-16T06:10:04;11.00;;;9.10;;
80586;SDS011;69943;20.850;106.728;2023-07-16T06:12:33;10.60;;;8.40;;
80586;SDS011;69943;20.850;106.728;2023-07-16T06:15:03;12.20;;;10.10;;
80586;SDS011;69943;20.850;106.728;2023-07-16T06:17:33;13.50;;;9.60;;
80586;SDS011;69943;20.850;106.728;2023-07-16T06:20:02;11.20;;;8.80;;
80586;SDS011;69943;20.850;106.728;2023-07-16T06:22:32;11.80;;;8.70;;
80586;SDS011;69943;20.850;106.728;2023-07-16T06:25:01;11.10;;;9.40;;
80586;SDS011;69943;20.850;106.728;2023-07-16T06:27:32;12.00;;;9.50;;
80586;SDS011;69943;20.850;106.728;2023-07-16T06:32:30;11.10;;;9.30;;
80586;SDS011;69943;20.850;106.728;2023-07-16T06:35:00;13.90;;;10.60;;
80586;SDS011;69943;20.850;106.728;2023-07-16T06:37:29;11.80;;;9.50;;
80586;SDS011;69943;20.850;106.728;2023-07-16T06:39:59;11.40;;;10.20;;
80586;SDS011;69943;20.850;106.728;2023-07-16T06:42:28;11.00;;;8.40;;
80586;SDS011;69943;20.850;106.728;2023-07-16T06:44:58;11.90;;;9.80;;
80586;SDS011;69943;20.850;106.728;2023-07-16T06:47:27;14.30;;;9.30;;
80586;SDS011;69943;20.850;106.728;2023-07-16T06:49:57;10.60;;;8.50;;
80586;SDS011;69943;20.850;106.728;2023-07-16T06:52:26;12.60;;;9.90;;
80586;SDS011;69943;20.850;106.728;2023-07-16T06:54:56;11.70;;;9.60;;
80586;SDS011;69943;20.850;106.728;2023-07-16T06:57:26;10.10;;;8.90;;
80586;SDS011;69943;20.850;106.728;2023-07-16T06:59:55;10.30;;;9.30;;
80586;SDS011;69943;20.850;106.728;2023-07-16T07:04:54;11.80;;;9.20;;
80586;SDS011;69943;20.850;106.728;2023-07-16T07:07:23;13.10;;;10.40;;
80586;SDS011;69943;20.850;106.728;2023-07-16T07:09:53;13.90;;;10.50;;
80586;SDS011;69943;20.850;106.728;2023-07-16T07:12:22;10.60;;;9.60;;
80586;SDS011;69943;20.850;106.728;2023-07-16T07:14:52;12.90;;;10.10;;
80586;SDS011;69943;20.850;106.728;2023-07-16T07:19:50;12.90;;;9.50;;
80586;SDS011;69943;20.850;106.728;2023-07-16T07:22:19;13.10;;;10.30;;
80586;SDS011;69943;20.850;106.728;2023-07-16T07:24:49;15.60;;;9.60;;
80586;SDS011;69943;20.850;106.728;2023-07-16T07:27:18;14.50;;;9.50;;
80586;SDS011;69943;20.850;106.728;2023-07-16T07:29:48;10.50;;;9.20;;
80586;SDS011;69943;20.850;106.728;2023-07-16T07:32:20;13.20;;;9.40;;
80586;SDS011;69943;20.850;106.728;2023-07-16T07:34:49;16.30;;;10.40;;
80586;SDS011;69943;20.850;106.728;2023-07-16T07:37:19;12.00;;;9.50;;
80586;SDS011;69943;20.850;106.728;2023-07-16T07:39:52;14.30;;;9.50;;
80586;SDS011;69943;20.850;106.728;2023-07-16T07:42:21;11.50;;;8.50;;
80586;SDS011;69943;20.850;106.728;2023-07-16T07:44:51;11.70;;;9.70;;
80586;SDS011;69943;20.850;106.728;2023-07-16T07:47:21;13.90;;;9.10;;
80586;SDS011;69943;20.850;106.728;2023-07-16T07:49:51;13.10;;;10.20;;
80586;SDS011;69943;20.850;106.728;2023-07-16T07:52:21;11.70;;;9.50;;
80586;SDS011;69943;20.850;106.728;2023-07-16T07:54:50;14.70;;;10.20;;
80586;SDS011;69943;20.850;106.728;2023-07-16T07:57:20;12.30;;;9.90;;
80586;SDS011;69943;20.850;106.728;2023-07-16T07:59:49;11.70;;;10.00;;
80586;SDS011;69943;20.850;106.728;2023-07-16T08:02:24;15.80;;;9.20;;
80586;SDS011;69943;20.850;106.728;2023-07-16T08:04:54;12.70;;;9.60;;
80586;SDS011;69943;20.850;106.728;2023-07-16T08:07:24;16.90;;;9.70;;
80586;SDS011;69943;20.850;106.728;2023-07-16T08:09:54;12.20;;;9.10;;
80586;SDS011;69943;20.850;106.728;2023-07-16T08:12:24;14.30;;;9.70;;
80586;SDS011;69943;20.850;106.728;2023-07-16T08:14:53;12.80;;;9.80;;
80586;SDS011;69943;20.850;106.728;2023-07-16T08:17:23;10.20;;;9.10;;
80586;SDS011;69943;20.850;106.728;2023-07-16T08:19:52;15.20;;;9.30;;
80586;SDS011;69943;20.850;106.728;2023-07-16T08:22:22;13.30;;;9.90;;
80586;SDS011;69943;20.850;106.728;2023-07-16T08:24:52;12.20;;;9.40;;
80586;SDS011;69943;20.850;106.728;2023-07-16T08:27:22;13.70;;;10.20;;
80586;SDS011;69943;20.850;106.728;2023-07-16T08:29:51;11.80;;;9.10;;
80586;SDS011;69943;20.850;106.728;2023-07-16T08:32:21;13.20;;;8.80;;
80586;SDS011;69943;20.850;106.728;2023-07-16T08:34:50;12.00;;;9.50;;
80586;SDS011;69943;20.850;106.728;2023-07-16T08:37:20;9.80;;;8.60;;
80586;SDS011;69943;20.850;106.728;2023-07-16T08:39:52;11.10;;;9.50;;
80586;SDS011;69943;20.850;106.728;2023-07-16T08:42:22;10.60;;;8.60;;
80586;SDS011;69943;20.850;106.728;2023-07-16T08:44:52;11.70;;;8.70;;
80586;SDS011;69943;20.850;106.728;2023-07-16T08:47:22;14.30;;;9.40;;
80586;SDS011;69943;20.850;106.728;2023-07-16T08:49:54;11.30;;;9.00;;
80586;SDS011;69943;20.850;106.728;2023-07-16T08:52:24;12.60;;;9.20;;
80586;SDS011;69943;20.850;106.728;2023-07-16T08:54:56;12.00;;;9.40;;
80586;SDS011;69943;20.850;106.728;2023-07-16T08:57:25;11.80;;;9.10;;
80586;SDS011;69943;20.850;106.728;2023-07-16T08:59:55;13.10;;;9.30;;
80586;SDS011;69943;20.850;106.728;2023-07-16T09:02:24;10.60;;;8.90;;
80586;SDS011;69943;20.850;106.728;2023-07-16T09:04:54;12.60;;;9.70;;
80586;SDS011;69943;20.850;106.728;2023-07-16T09:07:24;12.90;;;9.20;;
80586;SDS011;69943;20.850;106.728;2023-07-16T09:09:57;9.80;;;8.40;;
80586;SDS011;69943;20.850;106.728;2023-07-16T09:12:27;9.80;;;8.40;;
80586;SDS011;69943;20.850;106.728;2023-07-16T09:14:57;12.70;;;9.30;;
80586;SDS011;69943;20.850;106.728;2023-07-16T09:17:27;10.40;;;9.00;;
80586;SDS011;69943;20.850;106.728;2023-07-16T09:19:56;11.60;;;8.90;;
80586;SDS011;69943;20.850;106.728;2023-07-16T09:22:26;11.40;;;8.50;;
80586;SDS011;69943;20.850;106.728;2023-07-16T09:24:56;10.20;;;8.10;;
80586;SDS011;69943;20.850;106.728;2023-07-16T09:27:29;13.70;;;9.60;;
80586;SDS011;69943;20.850;106.728;2023-07-16T09:29:59;13.40;;;9.00;;
80586;SDS011;69943;20.850;106.728;2023-07-16T09:32:37;10.50;;;8.40;;
80586;SDS011;69943;20.850;106.728;2023-07-16T09:35:11;12.70;;;9.20;;
80586;SDS011;69943;20.850;106.728;2023-07-16T09:37:41;11.00;;;8.70;;
80586;SDS011;69943;20.850;106.728;2023-07-16T09:40:12;12.50;;;9.60;;
80586;SDS011;69943;20.850;106.728;2023-07-16T09:42:42;9.70;;;8.60;;
80586;SDS011;69943;20.850;106.728;2023-07-16T09:45:17;10.30;;;9.00;;
80586;SDS011;69943;20.850;106.728;2023-07-16T09:47:47;11.20;;;8.70;;
80586;SDS011;69943;20.850;106.728;2023-07-16T09:50:17;11.50;;;8.70;;
80586;SDS011;69943;20.850;106.728;2023-07-16T09:52:46;11.20;;;9.40;;
80586;SDS011;69943;20.850;106.728;2023-07-16T09:55:16;10.80;;;8.70;;
80586;SDS011;69943;20.850;106.728;2023-07-16T09:57:47;10.20;;;8.50;;
80586;SDS011;69943;20.850;106.728;2023-07-16T10:00:17;11.30;;;9.30;;
80586;SDS011;69943;20.850;106.728;2023-07-16T10:02:49;11.50;;;8.00;;
80586;SDS011;69943;20.850;106.728;2023-07-16T10:05:23;9.90;;;8.40;;
80586;SDS011;69943;20.850;106.728;2023-07-16T10:07:54;9.60;;;8.20;;
80586;SDS011;69943;20.850;106.728;2023-07-16T10:10:48;10.30;;;8.50;;
80586;SDS011;69943;20.850;106.728;2023-07-16T10:13:34;11.80;;;8.80;;
80586;SDS011;69943;20.850;106.728;2023-07-16T10:18:32;14.70;;;9.40;;
80586;SDS011;69943;20.850;106.728;2023-07-16T10:21:07;9.90;;;8.50;;
80586;SDS011;69943;20.850;106.728;2023-07-16T10:23:40;11.10;;;8.30;;
80586;SDS011;69943;20.850;106.728;2023-07-16T10:26:12;11.50;;;8.10;;
80586;SDS011;69943;20.850;106.728;2023-07-16T10:28:42;10.80;;;9.00;;
80586;SDS011;69943;20.850;106.728;2023-07-16T10:31:22;10.90;;;9.10;;
80586;SDS011;69943;20.850;106.728;2023-07-16T10:33:59;9.90;;;8.40;;
80586;SDS011;69943;20.850;106.728;2023-07-16T10:36:38;11.30;;;9.10;;
80586;SDS011;69943;20.850;106.728;2023-07-16T10:39:08;13.20;;;9.10;;
80586;SDS011;69943;20.850;106.728;2023-07-16T10:41:37;9.90;;;8.30;;
80586;SDS011;69943;20.850;106.728;2023-07-16T10:44:08;10.70;;;8.80;;
80586;SDS011;69943;20.850;106.728;2023-07-16T10:46:41;9.80;;;8.40;;
80586;SDS011;69943;20.850;106.728;2023-07-16T10:49:10;11.30;;;9.00;;
80586;SDS011;69943;20.850;106.728;2023-07-16T10:51:39;9.90;;;8.70;;
80586;SDS011;69943;20.850;106.728;2023-07-16T10:54:09;11.20;;;9.60;;
80586;SDS011;69943;20.850;106.728;2023-07-16T10:56:38;11.30;;;8.40;;
80586;SDS011;69943;20.850;106.728;2023-07-16T10:59:10;13.00;;;9.60;;
80586;SDS011;69943;20.850;106.728;2023-07-16T11:01:40;11.90;;;9.80;;
80586;SDS011;69943;20.850;106.728;2023-07-16T11:04:10;9.40;;;8.50;;
80586;SDS011;69943;20.850;106.728;2023-07-16T11:06:40;12.70;;;9.30;;
80586;SDS011;69943;20.850;106.728;2023-07-16T11:09:09;10.00;;;8.70;;
80586;SDS011;69943;20.850;106.728;2023-07-16T11:11:39;11.30;;;8.90;;
80586;SDS011;69943;20.850;106.728;2023-07-16T11:14:09;10.50;;;8.30;;
80586;SDS011;69943;20.850;106.728;2023-07-16T11:16:38;9.20;;;8.20;;
80586;SDS011;69943;20.850;106.728;2023-07-16T11:19:08;11.20;;;8.20;;
80586;SDS011;69943;20.850;106.728;2023-07-16T11:21:37;11.70;;;8.60;;
80586;SDS011;69943;20.850;106.728;2023-07-16T11:24:07;13.60;;;9.70;;
80586;SDS011;69943;20.850;106.728;2023-07-16T11:26:56;12.40;;;9.00;;
80586;SDS011;69943;20.850;106.728;2023-07-16T11:29:26;12.80;;;9.40;;
80586;SDS011;69943;20.850;106.728;2023-07-16T11:31:55;10.90;;;9.20;;
80586;SDS011;69943;20.850;106.728;2023-07-16T11:34:24;12.30;;;9.30;;
80586;SDS011;69943;20.850;106.728;2023-07-16T11:36:54;12.30;;;10.20;;
80586;SDS011;69943;20.850;106.728;2023-07-16T11:39:24;12.30;;;8.90;;
80586;SDS011;69943;20.850;106.728;2023-07-16T11:41:57;15.30;;;9.80;;
80586;SDS011;69943;20.850;106.728;2023-07-16T11:44:31;14.10;;;9.80;;
80586;SDS011;69943;20.850;106.728;2023-07-16T11:47:04;11.60;;;8.90;;
80586;SDS011;69943;20.850;106.728;2023-07-16T11:49:33;11.70;;;9.20;;
80586;SDS011;69943;20.850;106.728;2023-07-16T11:52:03;12.10;;;9.80;;
80586;SDS011;69943;20.850;106.728;2023-07-16T11:54:33;13.30;;;8.90;;
80586;SDS011;69943;20.850;106.728;2023-07-16T11:57:02;13.00;;;10.40;;
80586;SDS011;69943;20.850;106.728;2023-07-16T11:59:32;13.00;;;9.90;;
80586;SDS011;69943;20.850;106.728;2023-07-16T12:02:01;12.60;;;9.70;;
80586;SDS011;69943;20.850;106.728;2023-07-16T12:04:32;11.90;;;10.30;;
80586;SDS011;69943;20.850;106.728;2023-07-16T12:09:30;13.50;;;9.00;;
80586;SDS011;69943;20.850;106.728;2023-07-16T12:12:00;13.60;;;10.10;;
80586;SDS011;69943;20.850;106.728;2023-07-16T12:14:31;14.80;;;10.10;;
80586;SDS011;69943;20.850;106.728;2023-07-16T12:17:00;11.10;;;9.50;;
80586;SDS011;69943;20.850;106.728;2023-07-16T12:19:30;14.30;;;10.30;;
80586;SDS011;69943;20.850;106.728;2023-07-16T12:22:00;10.60;;;9.50;;
80586;SDS011;69943;20.850;106.728;2023-07-16T12:26:58;13.30;;;10.00;;
80586;SDS011;69943;20.850;106.728;2023-07-16T12:29:27;13.50;;;10.60;;
80586;SDS011;69943;20.850;106.728;2023-07-16T12:31:57;13.20;;;9.40;;
80586;SDS011;69943;20.850;106.728;2023-07-16T12:34:27;14.50;;;10.20;;
80586;SDS011;69943;20.850;106.728;2023-07-16T12:36:57;13.50;;;10.20;;
80586;SDS011;69943;20.850;106.728;2023-07-16T12:39:26;12.40;;;10.10;;
80586;SDS011;69943;20.850;106.728;2023-07-16T12:41:56;14.60;;;10.30;;
80586;SDS011;69943;20.850;106.728;2023-07-16T12:46:55;11.70;;;10.00;;
80586;SDS011;69943;20.850;106.728;2023-07-16T12:51:53;16.00;;;10.20;;
80586;SDS011;69943;20.850;106.728;2023-07-16T12:54:23;11.10;;;9.60;;
80586;SDS011;69943;20.850;106.728;2023-07-16T12:56:52;13.40;;;9.10;;
80586;SDS011;69943;20.850;106.728;2023-07-16T12:59:22;12.60;;;10.60;;
80586;SDS011;69943;20.850;106.728;2023-07-16T13:01:52;12.30;;;10.20;;
80586;SDS011;69943;20.850;106.728;2023-07-16T13:04:22;11.90;;;9.50;;
80586;SDS011;69943;20.850;106.728;2023-07-16T13:06:52;12.00;;;10.30;;
80586;SDS011;69943;20.850;106.728;2023-07-16T13:09:21;14.20;;;9.60;;
80586;SDS011;69943;20.850;106.728;2023-07-16T13:11:51;13.30;;;10.30;;
80586;SDS011;69943;20.850;106.728;2023-07-16T13:16:49;12.70;;;11.00;;
80586;SDS011;69943;20.850;106.728;2023-07-16T13:19:19;13.60;;;10.40;;
80586;SDS011;69943;20.850;106.728;2023-07-16T13:21:48;12.00;;;10.40;;
80586;SDS011;69943;20.850;106.728;2023-07-16T13:26:47;12.30;;;9.70;;
80586;SDS011;69943;20.850;106.728;2023-07-16T13:31:45;14.20;;;11.40;;
80586;SDS011;69943;20.850;106.728;2023-07-16T13:36:43;12.70;;;10.30;;
80586;SDS011;69943;20.850;106.728;2023-07-16T13:39:13;12.30;;;9.80;;
80586;SDS011;69943;20.850;106.728;2023-07-16T13:41:42;13.80;;;10.70;;
80586;SDS011;69943;20.850;106.728;2023-07-16T13:44:12;16.00;;;11.60;;
80586;SDS011;69943;20.850;106.728;2023-07-16T13:46:41;13.10;;;10.70;;
80586;SDS011;69943;20.850;106.728;2023-07-16T13:49:11;15.00;;;10.40;;
80586;SDS011;69943;20.850;106.728;2023-07-16T13:51:41;15.20;;;10.40;;
80586;SDS011;69943;20.850;106.728;2023-07-16T13:54:11;14.90;;;10.90;;
80586;SDS011;69943;20.850;106.728;2023-07-16T13:56:41;14.70;;;11.20;;
80586;SDS011;69943;20.850;106.728;2023-07-16T13:59:11;15.50;;;11.40;;
80586;SDS011;69943;20.850;106.728;2023-07-16T14:01:41;13.90;;;10.70;;
80586;SDS011;69943;20.850;106.728;2023-07-16T14:04:11;14.00;;;11.20;;
80586;SDS011;69943;20.850;106.728;2023-07-16T14:06:41;18.00;;;11.50;;
80586;SDS011;69943;20.850;106.728;2023-07-16T14:09:10;15.40;;;11.10;;
80586;SDS011;69943;20.850;106.728;2023-07-16T14:11:40;17.70;;;12.30;;
80586;SDS011;69943;20.850;106.728;2023-07-16T14:14:09;15.50;;;11.90;;
80586;SDS011;69943;20.850;106.728;2023-07-16T14:16:38;15.80;;;12.00;;
80586;SDS011;69943;20.850;106.728;2023-07-16T14:19:08;16.70;;;11.90;;
80586;SDS011;69943;20.850;106.728;2023-07-16T14:21:40;16.30;;;11.60;;
80586;SDS011;69943;20.850;106.728;2023-07-16T14:24:10;18.00;;;12.20;;
80586;SDS011;69943;20.850;106.728;2023-07-16T14:26:39;16.90;;;12.30;;
80586;SDS011;69943;20.850;106.728;2023-07-16T14:29:09;16.60;;;12.20;;
80586;SDS011;69943;20.850;106.728;2023-07-16T14:31:39;16.50;;;12.40;;
80586;SDS011;69943;20.850;106.728;2023-07-16T14:36:37;15.00;;;11.90;;
80586;SDS011;69943;20.850;106.728;2023-07-16T14:39:08;15.70;;;12.60;;
80586;SDS011;69943;20.850;106.728;2023-07-16T14:41:38;15.80;;;11.90;;
80586;SDS011;69943;20.850;106.728;2023-07-16T14:44:07;18.90;;;12.80;;
80586;SDS011;69943;20.850;106.728;2023-07-16T14:46:37;17.50;;;13.20;;
80586;SDS011;69943;20.850;106.728;2023-07-16T14:49:06;14.90;;;12.60;;
80586;SDS011;69943;20.850;106.728;2023-07-16T14:51:36;18.00;;;12.70;;
80586;SDS011;69943;20.850;106.728;2023-07-16T14:54:07;19.70;;;13.70;;
80586;SDS011;69943;20.850;106.728;2023-07-16T14:56:37;22.50;;;13.40;;
80586;SDS011;69943;20.850;106.728;2023-07-16T14:59:07;16.60;;;13.10;;
80586;SDS011;69943;20.850;106.728;2023-07-16T15:01:37;18.30;;;13.80;;
80586;SDS011;69943;20.850;106.728;2023-07-16T15:04:06;17.20;;;13.00;;
80586;SDS011;69943;20.850;106.728;2023-07-16T15:09:05;17.00;;;13.00;;
80586;SDS011;69943;20.850;106.728;2023-07-16T15:11:35;21.50;;;13.70;;
80586;SDS011;69943;20.850;106.728;2023-07-16T15:16:33;20.30;;;13.90;;
80586;SDS011;69943;20.850;106.728;2023-07-16T15:21:32;18.80;;;13.70;;
80586;SDS011;69943;20.850;106.728;2023-07-16T15:24:01;17.90;;;13.40;;
80586;SDS011;69943;20.850;106.728;2023-07-16T15:26:31;16.70;;;14.00;;